Time;durP1;ratioP1;P1;durP2;ratioP2;P2;SDS_P1;SDS_P2;PMS_P1;PMS_P2;Temp;Humidity;BMP_temperature;BMP_pressure;BME280_temperature;BME280_humidity;BME280_pressure;Samples;Min_cycle;Max_cycle;Signal;HPM_P1;HPM_P2
2022/10/04 00:01:29;;;;;;;0.20;0.20;;;13.90;99.90;;;;;;5045259;28;20045;-77
2022/10/04 00:04:10;;;;;;;1.85;0.73;;;13.90;99.90;;;;;;5020092;28;20065;-77
2022/10/04 00:06:43;;;;;;;0.68;0.65;;;13.90;99.90;;;;;;5035604;28;20563;-77
2022/10/04 00:09:22;;;;;;;0.10;0.10;;;13.80;99.90;;;;;;5031017;28;20113;-77
2022/10/04 00:11:50;;;;;;;0.10;0.10;;;13.80;99.90;;;;;;5015613;28;20038;-77
2022/10/04 00:14:23;;;;;;;0.00;0.00;;;13.80;99.90;;;;;;5020622;28;20100;-77
2022/10/04 00:16:49;;;;;;;0.20;0.20;;;13.80;99.90;;;;;;5023975;28;20045;-77
2022/10/04 00:19:18;;;;;;;0.10;0.10;;;13.90;99.90;;;;;;5037390;28;20084;-77
2022/10/04 00:21:55;;;;;;;0.10;0.10;;;13.90;99.90;;;;;;5037601;28;20060;-77
2022/10/04 00:24:24;;;;;;;0.40;0.40;;;13.90;99.90;;;;;;5029682;28;20050;-77
2022/10/04 00:26:49;;;;;;;0.10;0.10;;;13.90;99.90;;;;;;5028017;28;20048;-76
2022/10/04 00:29:34;;;;;;;0.45;0.32;;;13.90;99.90;;;;;;5026522;28;20058;-76
2022/10/04 00:32:09;;;;;;;0.10;0.10;;;13.80;99.90;;;;;;5043586;28;20444;-76
2022/10/04 00:34:34;;;;;;;0.10;0.10;;;13.80;99.90;;;;;;5032021;28;20050;-76
2022/10/04 00:37:02;;;;;;;0.32;0.32;;;13.80;99.90;;;;;;5041406;28;20492;-76
2022/10/04 00:39:33;;;;;;;0.30;0.30;;;13.80;99.90;;;;;;5031547;28;20037;-77
2022/10/04 00:42:30;;;;;;;0.10;0.10;;;13.80;99.90;;;;;;5026382;28;20412;-77
2022/10/04 00:45:14;;;;;;;0.10;0.10;;;13.90;99.90;;;;;;5021878;28;20088;-76
2022/10/04 00:47:43;;;;;;;0.40;0.40;;;13.90;99.90;;;;;;5017190;28;20049;-76
2022/10/04 00:50:20;;;;;;;0.20;0.20;;;13.80;99.90;;;;;;5039374;28;20060;-76
2022/10/04 00:52:59;;;;;;;0.45;0.45;;;13.70;99.90;;;;;;5032052;28;20128;-77
2022/10/04 00:55:40;;;;;;;0.10;0.10;;;13.80;99.90;;;;;;5025943;28;20053;-76
2022/10/04 00:58:15;;;;;;;1.63;0.85;;;13.80;99.90;;;;;;5033380;28;20529;-76
2022/10/04 01:00:42;;;;;;;0.10;0.10;;;13.80;99.90;;;;;;5037002;28;20087;-76
2022/10/04 01:03:12;;;;;;;0.30;0.30;;;13.80;99.90;;;;;;5026169;28;20054;-76
2022/10/04 01:05:42;;;;;;;0.25;0.25;;;13.80;99.90;;;;;;5012429;28;20402;-76
2022/10/04 01:08:34;;;;;;;0.32;0.32;;;13.80;99.90;;;;;;5041956;28;20041;-76
2022/10/04 01:11:09;;;;;;;0.10;0.10;;;13.80;99.90;;;;;;5021352;28;20509;-76
2022/10/04 01:14:10;;;;;;;1.42;0.38;;;13.80;99.90;;;;;;5030690;28;20049;-76
2022/10/04 01:16:37;;;;;;;0.10;0.10;;;13.80;99.90;;;;;;5043860;28;20076;-77
2022/10/04 01:19:28;;;;;;;0.30;0.30;;;13.80;99.90;;;;;;5041221;28;20048;-76
2022/10/04 01:22:06;;;;;;;0.10;0.10;;;13.80;99.90;;;;;;5031516;28;20516;-76
2022/10/04 01:24:37;;;;;;;0.05;0.05;;;13.70;99.90;;;;;;5038775;28;20068;-77
2022/10/04 01:27:06;;;;;;;0.70;0.70;;;13.60;99.90;;;;;;5031648;28;20052;-77
2022/10/04 01:29:31;;;;;;;0.30;0.30;;;13.60;99.90;;;;;;5013682;28;20563;-77
2022/10/04 01:31:59;;;;;;;0.10;0.10;;;13.60;99.90;;;;;;5015287;28;20030;-77
2022/10/04 01:34:29;;;;;;;0.20;0.20;;;13.60;99.90;;;;;;5030360;28;20053;-76
2022/10/04 01:36:58;;;;;;;0.15;0.15;;;13.60;99.90;;;;;;5024473;28;20436;-77
2022/10/04 01:39:25;;;;;;;0.28;0.15;;;13.60;99.90;;;;;;5015601;28;20141;-77
2022/10/04 01:42:18;;;;;;;0.40;0.40;;;13.50;99.90;;;;;;5033753;28;20052;-77
2022/10/04 01:44:52;;;;;;;0.10;0.10;;;13.40;99.90;;;;;;5027641;28;20048;-77
2022/10/04 01:47:23;;;;;;;0.10;0.10;;;13.30;99.90;;;;;;5033268;28;20037;-77
2022/10/04 01:49:50;;;;;;;0.10;0.10;;;13.40;99.90;;;;;;5035141;28;20982;-77
2022/10/04 01:52:28;;;;;;;0.10;0.10;;;13.30;99.90;;;;;;5029833;28;20049;-77
2022/10/04 01:55:11;;;;;;;0.08;0.08;;;13.30;99.90;;;;;;5015634;28;20042;-77
2022/10/04 01:57:44;;;;;;;0.10;0.10;;;13.30;99.90;;;;;;5028819;28;20103;-77
2022/10/04 02:00:11;;;;;;;;;;;13.30;99.90;;;;;;5027007;28;20056;-78
2022/10/04 02:02:43;;;;;;;0.20;0.20;;;13.20;99.90;;;;;;5030064;28;20011;-77
2022/10/04 02:05:19;;;;;;;0.20;0.20;;;13.20;99.90;;;;;;5011944;28;20065;-77
2022/10/04 02:07:47;;;;;;;0.10;0.10;;;13.10;99.90;;;;;;5019750;28;20501;-77
2022/10/04 02:10:19;;;;;;;0.10;0.10;;;13.10;99.90;;;;;;5038177;28;20055;-77
2022/10/04 02:12:48;;;;;;;0.85;0.85;;;13.00;99.90;;;;;;5011159;28;20046;-77
2022/10/04 02:15:17;;;;;;;0.52;0.52;;;13.00;99.90;;;;;;5039832;28;20045;-75
2022/10/04 02:17:43;;;;;;;0.10;0.10;;;12.90;99.90;;;;;;5029912;28;20049;-75
2022/10/04 02:20:21;;;;;;;0.10;0.10;;;12.90;99.90;;;;;;5024796;28;20052;-74
2022/10/04 02:22:51;;;;;;;0.25;0.25;;;12.80;99.90;;;;;;5035629;28;20436;-75
2022/10/04 02:25:19;;;;;;;0.00;0.00;;;12.80;99.90;;;;;;5040867;28;20369;-75
2022/10/04 02:27:45;;;;;;;0.20;0.20;;;12.80;99.90;;;;;;5009507;28;20041;-75
2022/10/04 02:30:12;;;;;;;0.10;0.10;;;12.70;99.90;;;;;;5011728;28;20048;-76
2022/10/04 02:32:59;;;;;;;0.82;0.82;;;12.70;99.90;;;;;;5043089;28;20046;-76
2022/10/04 02:35:34;;;;;;;1.60;0.25;;;12.70;99.90;;;;;;5011857;28;20640;-76
2022/10/04 02:38:12;;;;;;;0.30;0.30;;;12.60;99.90;;;;;;5028356;28;20052;-75
2022/10/04 02:40:56;;;;;;;0.10;0.10;;;12.70;99.90;;;;;;5032031;28;20422;-75
2022/10/04 02:43:23;;;;;;;;;;;12.60;99.90;;;;;;5034478;28;20063;-76
2022/10/04 02:45:59;;;;;;;0.10;0.10;;;12.60;99.90;;;;;;5029561;28;20469;-75
2022/10/04 02:48:38;;;;;;;0.10;0.10;;;12.60;99.90;;;;;;5025710;28;20094;-76
2022/10/04 02:51:24;;;;;;;0.10;0.10;;;12.50;99.90;;;;;;5024385;28;20129;-77
2022/10/04 02:54:15;;;;;;;0.00;0.00;;;12.50;99.90;;;;;;5016465;28;20489;-77
2022/10/04 02:56:41;;;;;;;0.10;0.10;;;12.40;99.90;;;;;;5021155;28;20049;-77
2022/10/04 02:59:12;;;;;;;0.10;0.10;;;12.40;99.90;;;;;;5024061;28;20045;-76
2022/10/04 03:01:58;;;;;;;0.38;0.38;;;12.40;99.90;;;;;;5027574;28;20388;-77
2022/10/04 03:04:30;;;;;;;0.10;0.10;;;12.30;99.90;;;;;;5021702;28;20053;-76
2022/10/04 03:07:00;;;;;;;0.20;0.20;;;12.30;99.90;;;;;;5024687;28;20077;-77
2022/10/04 03:09:26;;;;;;;0.10;0.10;;;12.40;99.90;;;;;;5026990;28;20085;-76
2022/10/04 03:11:52;;;;;;;0.00;0.00;;;12.50;99.90;;;;;;5021168;28;20127;-76
2022/10/04 03:14:21;;;;;;;0.47;0.47;;;12.40;99.90;;;;;;5029382;28;20045;-77
2022/10/04 03:16:52;;;;;;;0.47;0.47;;;12.40;99.90;;;;;;5027217;28;20138;-76
2022/10/04 03:19:19;;;;;;;6.40;1.27;;;12.40;99.90;;;;;;5036195;28;20044;-76
2022/10/04 03:21:48;;;;;;;2.28;2.10;;;12.40;99.90;;;;;;5018903;28;20048;-76
2022/10/04 03:24:23;;;;;;;0.15;0.15;;;12.40;99.90;;;;;;5030691;28;20052;-76
2022/10/04 03:26:55;;;;;;;0.00;0.00;;;12.40;99.90;;;;;;5023904;28;20041;-76
2022/10/04 03:29:23;;;;;;;0.43;0.43;;;12.40;99.90;;;;;;5028583;28;20074;-76
2022/10/04 03:31:51;;;;;;;0.28;0.28;;;12.40;99.90;;;;;;5030123;28;20540;-76
2022/10/04 03:34:20;;;;;;;0.20;0.20;;;12.50;99.90;;;;;;5020170;28;20038;-76
2022/10/04 03:36:48;;;;;;;0.20;0.20;;;12.50;99.90;;;;;;5016584;28;20402;-77
2022/10/04 03:39:37;;;;;;;0.13;0.13;;;12.40;99.90;;;;;;5031821;28;20057;-77
2022/10/04 03:42:19;;;;;;;0.20;0.20;;;12.40;99.90;;;;;;5016333;28;20046;-76
2022/10/04 03:44:47;;;;;;;0.10;0.10;;;12.40;99.90;;;;;;5023922;28;20049;-77
2022/10/04 03:47:20;;;;;;;0.03;0.03;;;12.40;99.90;;;;;;5029226;28;20038;-77
2022/10/04 03:49:47;;;;;;;0.38;0.35;;;12.40;99.90;;;;;;5022614;28;20404;-77
2022/10/04 03:52:27;;;;;;;0.10;0.10;;;12.40;99.90;;;;;;5020988;28;20045;-77
2022/10/04 03:54:57;;;;;;;0.00;0.00;;;12.40;99.90;;;;;;5016661;28;20125;-77
2022/10/04 03:57:23;;;;;;;0.05;0.05;;;12.40;99.90;;;;;;5030375;28;20060;-77
2022/10/04 03:59:50;;;;;;;0.98;0.85;;;12.30;99.90;;;;;;5045290;28;20049;-77
2022/10/04 04:02:25;;;;;;;0.10;0.10;;;12.30;99.90;;;;;;5032962;28;20061;-76
2022/10/04 04:05:08;;;;;;;0.10;0.10;;;12.30;99.90;;;;;;5024327;28;20396;-77
2022/10/04 04:07:37;;;;;;;;;;;12.30;99.90;;;;;;5031370;28;20053;-76
2022/10/04 04:10:21;;;;;;;0.32;0.32;;;12.30;99.90;;;;;;5026436;28;20395;-77
2022/10/04 04:13:25;;;;;;;0.30;0.30;;;12.20;99.90;;;;;;5037564;28;20424;-76
2022/10/04 04:15:53;;;;;;;0.10;0.10;;;12.20;99.90;;;;;;5014306;28;20505;-76
2022/10/04 04:18:21;;;;;;;0.10;0.10;;;12.20;99.90;;;;;;5026189;28;20439;-76
2022/10/04 04:20:50;;;;;;;0.55;0.55;;;12.20;99.90;;;;;;5037292;28;20041;-76
2022/10/04 04:23:27;;;;;;;0.25;0.25;;;12.20;99.90;;;;;;5039175;28;20080;-75
2022/10/04 04:25:55;;;;;;;0.20;0.20;;;12.10;99.90;;;;;;5028786;28;20049;-75
2022/10/04 04:28:28;;;;;;;0.10;0.10;;;12.10;99.90;;;;;;5025467;28;20045;-75
2022/10/04 04:31:05;;;;;;;0.10;0.10;;;12.10;99.90;;;;;;5035202;28;20075;-76
2022/10/04 04:33:41;;;;;;;1.75;1.48;;;12.10;99.90;;;;;;5025816;28;20448;-76
2022/10/04 04:36:11;;;;;;;0.43;0.43;;;12.10;99.90;;;;;;5025597;28;20056;-76
2022/10/04 04:39:33;;;;;;;0.10;0.10;;;12.00;99.90;;;;;;5029630;28;20129;-76
2022/10/04 04:41:30;;;;;;;0.10;0.10;;;12.00;99.90;;;;;;5028596;28;20049;-76
2022/10/04 04:43:56;;;;;;;1.42;0.85;;;12.00;99.90;;;;;;5028199;28;20042;-77
2022/10/04 04:46:22;;;;;;;0.40;0.40;;;11.90;99.90;;;;;;5012488;28;20088;-76
2022/10/04 04:48:52;;;;;;;0.30;0.30;;;12.00;99.90;;;;;;5029642;28;20041;-77
2022/10/04 04:51:21;;;;;;;7.47;1.65;;;12.00;99.90;;;;;;5031388;28;20537;-76
2022/10/04 04:53:48;;;;;;;0.22;0.22;;;12.00;99.90;;;;;;5039301;28;20489;-76
2022/10/04 04:56:18;;;;;;;0.47;0.47;;;12.00;99.90;;;;;;5032688;28;20054;-76
2022/10/04 04:58:47;;;;;;;0.70;0.55;;;12.00;99.90;;;;;;5039764;28;20127;-77
2022/10/04 05:01:24;;;;;;;0.40;0.40;;;12.00;99.90;;;;;;5029223;28;20084;-76
2022/10/04 05:04:20;;;;;;;0.25;0.25;;;12.00;99.90;;;;;;5022486;28;20092;-77
2022/10/04 05:06:59;;;;;;;0.57;0.57;;;12.00;99.90;;;;;;5036889;28;20081;-77
2022/10/04 05:09:29;;;;;;;0.00;0.00;;;12.00;99.90;;;;;;5045147;28;20460;-77
2022/10/04 05:12:01;;;;;;;0.32;0.32;;;11.90;99.90;;;;;;5041501;28;20073;-77
2022/10/04 05:14:29;;;;;;;0.10;0.10;;;11.90;99.90;;;;;;5029555;28;20143;-76
2022/10/04 05:16:56;;;;;;;1.00;1.00;;;11.90;99.90;;;;;;5037449;28;20116;-76
2022/10/04 05:19:30;;;;;;;0.57;0.28;;;11.90;99.90;;;;;;5030837;28;20041;-75
2022/10/04 05:21:58;;;;;;;0.77;0.55;;;11.90;99.90;;;;;;5047446;28;20052;-76
2022/10/04 05:24:50;;;;;;;0.20;0.20;;;11.90;99.90;;;;;;5031374;28;20128;-75
2022/10/04 05:27:25;;;;;;;0.10;0.10;;;11.80;99.90;;;;;;5030491;28;20136;-75
2022/10/04 05:30:21;;;;;;;0.43;0.43;;;11.90;99.90;;;;;;5038281;28;20037;-76
2022/10/04 05:33:05;;;;;;;0.10;0.10;;;11.90;99.90;;;;;;5035614;28;20056;-76
2022/10/04 05:35:40;;;;;;;;;;;11.80;99.90;;;;;;5026561;28;20041;-76
2022/10/04 05:38:30;;;;;;;0.47;0.47;;;11.90;99.90;;;;;;5030770;28;20020;-75
2022/10/04 05:41:00;;;;;;;0.55;0.55;;;11.90;99.90;;;;;;5030031;28;20037;-76
2022/10/04 05:43:43;;;;;;;0.30;0.30;;;11.90;99.90;;;;;;5029654;28;20036;-77
2022/10/04 05:46:23;;;;;;;0.10;0.10;;;11.90;99.90;;;;;;5030862;28;20045;-76
2022/10/04 05:49:09;;;;;;;0.20;0.20;;;11.90;99.90;;;;;;5037424;28;20045;-76
2022/10/04 05:51:49;;;;;;;0.20;0.20;;;11.90;99.90;;;;;;5027059;28;20064;-76
2022/10/04 05:54:20;;;;;;;0.13;0.13;;;11.90;99.90;;;;;;5029542;28;20057;-74
2022/10/04 05:57:06;;;;;;;0.75;0.68;;;11.90;99.90;;;;;;5021688;28;20046;-75
2022/10/04 05:59:50;;;;;;;0.80;0.80;;;11.90;99.90;;;;;;5025964;28;20044;-75
2022/10/04 06:02:54;;;;;;;0.75;0.75;;;11.80;99.90;;;;;;5028948;28;20107;-75
2022/10/04 06:05:47;;;;;;;0.65;0.65;;;11.80;99.90;;;;;;5029076;28;20417;-76
2022/10/04 06:09:08;;;;;;;0.25;0.25;;;11.80;99.90;;;;;;5033384;28;20408;-76
2022/10/04 06:12:00;;;;;;;0.57;0.57;;;11.90;99.90;;;;;;5009230;28;20068;-76
2022/10/04 06:14:59;;;;;;;1.20;0.85;;;11.80;99.90;;;;;;5030182;28;20037;-76
2022/10/04 06:17:38;;;;;;;0.20;0.20;;;11.80;99.90;;;;;;5028709;28;20080;-76
2022/10/04 06:20:12;;;;;;;3.40;1.48;;;11.90;99.90;;;;;;5030605;28;20139;-75
2022/10/04 06:22:46;;;;;;;0.47;0.47;;;11.90;99.90;;;;;;5028038;28;20049;-75
2022/10/04 06:25:22;;;;;;;0.13;0.13;;;11.90;99.90;;;;;;5022048;28;20054;-75
2022/10/04 06:28:03;;;;;;;0.28;0.28;;;11.90;99.90;;;;;;5047539;28;20045;-75
2022/10/04 06:30:41;;;;;;;0.22;0.22;;;11.90;99.90;;;;;;5042737;28;20045;-75
2022/10/04 06:33:25;;;;;;;0.10;0.10;;;11.90;99.90;;;;;;5018467;28;20046;-75
2022/10/04 06:36:25;;;;;;;0.03;0.03;;;11.90;99.90;;;;;;5017393;28;20042;-75
2022/10/04 06:39:07;;;;;;;0.10;0.10;;;11.90;99.90;;;;;;5010879;28;20057;-75
2022/10/04 06:41:53;;;;;;;0.00;0.00;;;11.80;99.90;;;;;;5037271;28;20049;-75
2022/10/04 06:44:31;;;;;;;1.80;1.65;;;11.90;99.90;;;;;;5033177;28;20052;-75
2022/10/04 06:47:14;;;;;;;0.52;0.52;;;11.90;99.90;;;;;;5031013;28;20149;-75
2022/10/04 06:50:16;;;;;;;0.95;0.93;;;11.90;99.90;;;;;;5026363;28;20045;-76
2022/10/04 06:52:57;;;;;;;0.28;0.28;;;12.00;99.90;;;;;;5032585;28;20045;-76
2022/10/04 06:55:41;;;;;;;0.20;0.20;;;12.00;99.90;;;;;;5025017;28;20090;-76
2022/10/04 06:58:24;;;;;;;0.10;0.10;;;12.10;99.90;;;;;;5027805;28;20086;-76
2022/10/04 07:00:58;;;;;;;0.10;0.10;;;12.10;99.90;;;;;;5030886;28;20046;-76
2022/10/04 07:03:37;;;;;;;0.30;0.30;;;12.20;99.90;;;;;;5025927;28;20149;-76
2022/10/04 07:06:06;;;;;;;0.10;0.10;;;12.20;99.90;;;;;;5027458;28;20079;-75
2022/10/04 07:08:50;;;;;;;0.10;0.10;;;12.20;99.90;;;;;;5025715;28;20103;-76
2022/10/04 07:11:23;;;;;;;0.10;0.10;;;12.20;99.90;;;;;;5027959;28;20496;-76
2022/10/04 07:14:11;;;;;;;0.43;0.43;;;12.20;99.90;;;;;;5028821;28;20045;-76
2022/10/04 07:16:45;;;;;;;0.80;0.75;;;12.20;99.90;;;;;;5016968;28;20045;-75
2022/10/04 07:19:35;;;;;;;0.20;0.20;;;12.30;99.90;;;;;;5031201;28;20128;-75
2022/10/04 07:22:07;;;;;;;0.10;0.10;;;12.20;99.90;;;;;;5051598;28;20056;-75
2022/10/04 07:24:51;;;;;;;0.00;0.00;;;12.20;99.90;;;;;;5046064;28;20056;-75
2022/10/04 07:29:19;;;;;;;0.10;0.10;;;12.20;99.90;;;;;;5055275;28;20049;-75
2022/10/04 07:30:54;;;;;;;0.10;0.10;;;12.20;99.90;;;;;;5052179;28;20120;-75
2022/10/04 07:33:23;;;;;;;0.28;0.28;;;12.30;99.90;;;;;;5055015;28;20052;-75
2022/10/04 07:36:02;;;;;;;0.10;0.10;;;12.30;99.90;;;;;;5046915;28;20041;-75
2022/10/04 07:38:31;;;;;;;0.10;0.10;;;12.40;99.90;;;;;;5044700;28;20594;-75
2022/10/04 07:41:08;;;;;;;0.10;0.10;;;12.40;99.90;;;;;;5043077;28;20046;-75
2022/10/04 07:44:08;;;;;;;0.20;0.20;;;12.40;99.90;;;;;;5031615;28;20042;-76
2022/10/04 07:46:42;;;;;;;0.03;0.03;;;12.40;99.90;;;;;;5047330;28;20041;-76
2022/10/04 07:49:19;;;;;;;0.70;0.70;;;12.50;99.90;;;;;;5038948;28;20056;-75
2022/10/04 07:52:21;;;;;;;0.10;0.10;;;12.50;99.90;;;;;;5055982;28;20084;-76
2022/10/04 07:55:24;;;;;;;0.10;0.10;;;12.60;99.90;;;;;;5038284;28;20041;-76
2022/10/04 07:57:57;;;;;;;0.20;0.20;;;12.60;99.90;;;;;;5053899;28;20041;-75
2022/10/04 08:00:38;;;;;;;0.25;0.25;;;12.70;99.90;;;;;;5055501;28;20045;-76
2022/10/04 08:03:17;;;;;;;0.00;0.00;;;12.80;99.90;;;;;;5036207;28;20516;-76
2022/10/04 08:05:57;;;;;;;0.10;0.10;;;12.90;99.90;;;;;;5030142;28;20579;-76
2022/10/04 08:08:51;;;;;;;0.57;0.57;;;13.00;99.90;;;;;;5034225;28;20484;-75
2022/10/04 08:11:41;;;;;;;;;;;13.10;99.90;;;;;;5035542;28;20052;-75
2022/10/04 08:14:32;;;;;;;0.03;0.03;;;13.10;99.90;;;;;;5022736;28;19929;-76
2022/10/04 08:17:22;;;;;;;5.50;0.63;;;13.10;99.90;;;;;;5026513;28;20041;-75
2022/10/04 08:20:16;;;;;;;0.20;0.20;;;13.20;99.90;;;;;;5051694;28;20038;-75
2022/10/04 08:23:20;;;;;;;0.30;0.25;;;13.30;99.90;;;;;;5054993;28;20507;-75
2022/10/04 08:26:06;;;;;;;0.50;0.50;;;13.40;99.90;;;;;;5047809;28;20525;-75
2022/10/04 08:31:39;;;;;;;5.35;2.97;;;13.60;99.90;;;;;;5014992;28;20425;-75
2022/10/04 08:34:20;;;;;;;0.98;0.98;;;13.70;99.90;;;;;;5030143;28;20085;-75
2022/10/04 08:37:08;;;;;;;0.30;0.30;;;13.70;99.90;;;;;;5030002;28;20104;-75
2022/10/04 08:40:16;;;;;;;0.32;0.32;;;13.80;99.90;;;;;;5031734;28;20049;-76
2022/10/04 08:42:59;;;;;;;1.10;1.10;;;13.90;99.90;;;;;;5011450;28;20474;-77
2022/10/04 08:46:02;;;;;;;0.93;0.55;;;14.00;99.90;;;;;;5027057;28;20098;-75
2022/10/04 08:48:50;;;;;;;2.47;1.73;;;14.00;99.90;;;;;;5028545;28;20053;-76
2022/10/04 08:51:33;;;;;;;3.03;1.45;;;14.10;99.90;;;;;;5027261;28;20515;-76
2022/10/04 08:54:22;;;;;;;4.97;2.38;;;14.10;99.90;;;;;;5026081;28;20143;-76
2022/10/04 08:57:10;;;;;;;0.17;0.17;;;14.10;99.90;;;;;;5032566;28;20053;-77
2022/10/04 08:59:38;;;;;;;0.55;0.55;;;14.10;99.90;;;;;;5033132;28;20107;-77
2022/10/04 09:02:48;;;;;;;1.63;0.40;;;14.10;99.90;;;;;;5041662;28;20603;-75
2022/10/04 09:05:19;;;;;;;0.38;0.38;;;14.20;99.90;;;;;;5006176;28;20050;-75
2022/10/04 09:08:19;;;;;;;0.77;0.77;;;14.20;99.90;;;;;;5031089;28;20053;-76
2022/10/04 09:11:09;;;;;;;2.47;1.30;;;14.30;99.90;;;;;;5041707;28;20049;-75
2022/10/04 09:14:13;;;;;;;1.17;1.08;;;14.90;99.90;;;;;;5052906;28;20098;-75
2022/10/04 09:16:44;;;;;;;0.20;0.20;;;15.30;99.90;;;;;;5050727;28;20057;-75
2022/10/04 09:19:21;;;;;;;1.98;1.23;;;15.50;99.90;;;;;;5051047;28;20037;-75
2022/10/04 09:21:49;;;;;;;1.35;1.25;;;15.30;99.90;;;;;;5037746;28;20053;-75
2022/10/04 09:24:37;;;;;;;0.20;0.20;;;15.60;99.90;;;;;;5030232;28;20037;-75
2022/10/04 09:27:11;;;;;;;0.20;0.20;;;15.50;99.90;;;;;;5031269;28;20089;-74
2022/10/04 09:29:59;;;;;;;2.05;0.68;;;15.40;99.90;;;;;;5031720;28;20117;-74
2022/10/04 09:32:33;;;;;;;1.38;0.50;;;15.20;99.90;;;;;;5030264;28;20076;-74
2022/10/04 09:35:20;;;;;;;1.88;0.28;;;15.10;99.90;;;;;;5052234;28;20095;-74
2022/10/04 09:38:08;;;;;;;1.15;0.52;;;15.00;99.90;;;;;;5017338;28;20504;-75
2022/10/04 09:41:06;;;;;;;2.15;2.05;;;14.90;99.90;;;;;;5022348;28;20053;-75
2022/10/04 09:44:05;;;;;;;0.75;0.75;;;14.80;99.90;;;;;;5032505;28;20172;-74
2022/10/04 09:46:54;;;;;;;1.20;1.08;;;15.20;99.90;;;;;;5029060;28;20050;-74
2022/10/04 09:49:51;;;;;;;0.45;0.45;;;15.10;99.90;;;;;;5051859;28;20041;-74
2022/10/04 09:52:32;;;;;;;0.45;0.45;;;15.30;99.90;;;;;;5026318;28;20049;-74
2022/10/04 09:55:27;;;;;;;0.77;0.77;;;15.40;99.90;;;;;;5012338;28;20402;-76
2022/10/04 09:58:21;;;;;;;0.75;0.75;;;15.60;99.90;;;;;;5011148;28;20147;-75
2022/10/04 10:01:12;;;;;;;0.90;0.55;;;15.90;99.90;;;;;;5029729;28;20488;-76
2022/10/04 10:04:16;;;;;;;0.82;0.82;;;16.20;99.90;;;;;;5033774;28;20140;-75
2022/10/04 10:07:09;;;;;;;9.88;0.73;;;16.60;99.90;;;;;;5026824;28;20579;-76
2022/10/04 10:13:39;;;;;;;1.15;0.73;;;16.50;99.90;;;;;;5049823;28;20366;-74
2022/10/04 10:16:40;;;;;;;2.53;0.63;;;16.10;99.90;;;;;;5017129;28;20076;-72
2022/10/04 10:19:52;;;;;;;0.80;0.80;;;16.00;99.90;;;;;;5030118;28;20068;-73
2022/10/04 10:22:51;;;;;;;0.57;0.45;;;16.00;99.90;;;;;;5029434;28;20053;-74
2022/10/04 10:25:27;;;;;;;1.60;1.27;;;15.90;99.90;;;;;;5050468;28;20053;-74
2022/10/04 10:28:22;;;;;;;0.35;0.35;;;15.70;99.90;;;;;;5038120;28;20107;-74
2022/10/04 10:31:04;;;;;;;1.05;0.95;;;15.80;99.90;;;;;;5028204;28;20045;-73
2022/10/04 10:34:04;;;;;;;0.30;0.30;;;16.00;99.90;;;;;;5042783;28;20048;-73
2022/10/04 10:36:41;;;;;;;0.95;0.82;;;16.00;99.90;;;;;;5033180;28;20045;-72
2022/10/04 10:39:44;;;;;;;0.08;0.08;;;15.90;99.90;;;;;;5029108;28;20052;-72
2022/10/04 10:42:36;;;;;;;0.40;0.40;;;16.10;99.90;;;;;;5009091;28;20049;-73
2022/10/04 10:45:39;;;;;;;1.20;1.13;;;16.00;99.90;;;;;;5021348;28;20124;-72
2022/10/04 10:48:34;;;;;;;6.03;0.88;;;15.80;99.90;;;;;;5027066;28;20045;-73
2022/10/04 10:51:21;;;;;;;0.30;0.30;;;15.70;99.90;;;;;;5031059;28;20041;-72
2022/10/04 10:54:09;;;;;;;0.60;0.60;;;15.60;99.90;;;;;;5024887;28;20057;-72
2022/10/04 10:56:51;;;;;;;0.30;0.30;;;15.80;99.90;;;;;;5039868;28;20074;-73
2022/10/04 10:59:38;;;;;;;2.08;1.23;;;16.00;99.90;;;;;;5038519;28;20427;-74
2022/10/04 11:02:23;;;;;;;0.50;0.50;;;16.10;99.90;;;;;;5029916;28;20421;-74
2022/10/04 11:05:03;;;;;;;0.25;0.25;;;16.20;99.90;;;;;;5044746;28;20052;-73
2022/10/04 11:07:50;;;;;;;0.55;0.55;;;16.40;99.90;;;;;;5030341;28;20120;-73
2022/10/04 11:10:32;;;;;;;0.47;0.38;;;16.20;99.90;;;;;;5046440;28;20052;-74
2022/10/04 11:13:01;;;;;;;0.73;0.73;;;16.00;99.90;;;;;;5049534;28;20094;-73
2022/10/04 11:15:50;;;;;;;1.10;0.77;;;16.20;99.90;;;;;;5035436;28;20480;-73
2022/10/04 11:18:15;;;;;;;0.20;0.20;;;16.70;99.90;;;;;;5023503;28;20087;-75
2022/10/04 11:21:02;;;;;;;0.20;0.20;;;16.80;99.90;;;;;;5024444;28;20041;-75
2022/10/04 11:23:41;;;;;;;0.25;0.25;;;17.10;99.90;;;;;;5024468;28;20445;-74
2022/10/04 11:26:33;;;;;;;0.47;0.47;;;17.50;99.90;;;;;;5025360;28;20099;-72
2022/10/04 11:29:10;;;;;;;1.55;1.20;;;17.60;99.90;;;;;;5022987;28;20052;-74
2022/10/04 11:31:59;;;;;;;0.10;0.10;;;17.80;99.90;;;;;;5025197;28;20052;-73
2022/10/04 11:34:31;;;;;;;0.38;0.38;;;17.70;99.90;;;;;;5026015;28;20404;-73
2022/10/04 11:37:00;;;;;;;0.82;0.77;;;17.70;99.90;;;;;;5027956;28;20047;-73
2022/10/04 11:39:59;;;;;;;1.88;0.73;;;17.90;99.90;;;;;;5025398;28;20053;-73
2022/10/04 11:43:02;;;;;;;0.80;0.63;;;17.90;99.90;;;;;;5002813;28;20076;-74
2022/10/04 11:46:05;;;;;;;0.93;0.90;;;17.90;99.90;;;;;;5020738;28;20049;-74
2022/10/04 11:48:47;;;;;;;0.40;0.40;;;18.40;99.90;;;;;;5028207;28;20099;-74
2022/10/04 11:51:31;;;;;;;0.40;0.40;;;18.60;99.90;;;;;;5016832;28;20125;-74
2022/10/04 11:54:16;;;;;;;0.30;0.30;;;18.90;99.90;;;;;;5033443;28;20046;-74
2022/10/04 11:57:00;;;;;;;13.68;1.40;;;19.00;99.90;;;;;;5027083;28;20061;-74
2022/10/04 11:59:46;;;;;;;0.50;0.50;;;19.40;99.90;;;;;;5026805;28;20489;-74
2022/10/04 12:02:51;;;;;;;1.42;0.85;;;19.50;99.90;;;;;;5021006;28;20058;-74
2022/10/04 12:05:38;;;;;;;0.20;0.20;;;19.50;99.90;;;;;;5012684;28;20409;-74
2022/10/04 12:08:30;;;;;;;2.15;1.13;;;20.00;99.90;;;;;;5029937;28;20421;-73
2022/10/04 12:11:14;;;;;;;0.28;0.28;;;20.00;99.90;;;;;;5031821;28;20092;-74
2022/10/04 12:14:08;;;;;;;0.43;0.43;;;20.30;99.90;;;;;;5038690;28;20041;-75
2022/10/04 12:16:48;;;;;;;0.45;0.45;;;20.20;99.90;;;;;;5052772;28;20171;-73
2022/10/04 12:19:28;;;;;;;0.08;0.08;;;19.90;99.90;;;;;;5051146;28;20059;-74
2022/10/04 12:22:07;;;;;;;0.90;0.55;;;19.80;99.90;;;;;;5034483;28;20512;-73
2022/10/04 12:24:36;;;;;;;0.22;0.22;;;20.10;99.90;;;;;;5033628;28;20045;-74
2022/10/04 12:27:33;;;;;;;0.10;0.10;;;19.90;99.90;;;;;;5031273;28;20052;-73
2022/10/04 12:30:13;;;;;;;0.20;0.20;;;20.00;99.90;;;;;;5051457;28;20045;-74
2022/10/04 12:32:53;;;;;;;1.17;0.35;;;19.60;99.90;;;;;;5017459;28;20099;-73
2022/10/04 12:35:56;;;;;;;0.30;0.30;;;19.50;99.90;;;;;;5028185;28;20045;-74
2022/10/04 12:38:57;;;;;;;0.22;0.22;;;19.60;99.90;;;;;;5029756;28;20058;-73
2022/10/04 12:41:35;;;;;;;0.17;0.17;;;19.80;99.90;;;;;;5032938;28;20045;-72
2022/10/04 12:44:07;;;;;;;0.60;0.60;;;20.20;99.90;;;;;;5028551;28;20104;-73
2022/10/04 12:46:56;;;;;;;0.45;0.45;;;20.30;99.90;;;;;;5031542;28;20060;-73
2022/10/04 12:49:44;;;;;;;0.10;0.10;;;20.50;99.90;;;;;;5028250;28;20037;-74
2022/10/04 12:52:16;;;;;;;0.38;0.10;;;20.80;99.90;;;;;;5029775;28;20049;-74
2022/10/04 12:54:46;;;;;;;0.15;0.15;;;20.80;99.90;;;;;;5033953;28;20045;-73
2022/10/04 12:57:33;;;;;;;1.08;0.57;;;20.50;99.90;;;;;;5030071;28;20501;-75
2022/10/04 13:00:21;;;;;;;18.85;0.50;;;20.50;99.90;;;;;;5032080;28;20117;-74
2022/10/04 13:03:25;;;;;;;0.80;0.32;;;20.40;99.90;;;;;;5023687;28;20049;-75
2022/10/04 13:06:01;;;;;;;2.05;1.45;;;20.90;99.90;;;;;;5033974;28;20045;-76
2022/10/04 13:08:53;;;;;;;0.25;0.25;;;21.10;99.90;;;;;;5047584;28;20600;-75
2022/10/04 13:11:38;;;;;;;0.43;0.43;;;21.00;99.90;;;;;;5023193;28;20559;-76
2022/10/04 13:14:43;;;;;;;0.20;0.20;;;21.00;99.90;;;;;;5052442;28;20053;-77
2022/10/04 13:17:26;;;;;;;0.10;0.10;;;20.60;99.90;;;;;;5027160;28;20055;-75
2022/10/04 13:20:21;;;;;;;0.10;0.10;;;20.60;99.90;;;;;;5051774;28;20048;-74
2022/10/04 13:23:07;;;;;;;1.45;0.32;;;20.20;99.90;;;;;;5036242;28;20102;-75
2022/10/04 13:25:53;;;;;;;1.02;0.75;;;20.20;99.90;;;;;;5025415;28;20087;-75
2022/10/04 13:28:50;;;;;;;0.20;0.20;;;20.20;99.90;;;;;;5029966;28;20053;-77
2022/10/04 13:31:23;;;;;;;0.50;0.20;;;20.10;99.90;;;;;;5030045;28;20103;-78
2022/10/04 13:34:08;;;;;;;1.20;1.10;;;20.00;99.90;;;;;;5038537;28;20481;-77
2022/10/04 13:37:11;;;;;;;0.10;0.10;;;19.90;99.90;;;;;;5034689;28;20388;-76
2022/10/04 13:40:02;;;;;;;0.73;0.40;;;20.00;99.90;;;;;;5030531;28;20041;-76
2022/10/04 13:42:47;;;;;;;0.10;0.10;;;19.90;99.90;;;;;;5012296;28;20057;-76
2022/10/04 13:45:19;;;;;;;0.15;0.15;;;19.70;99.90;;;;;;5024413;28;20096;-74
2022/10/04 13:48:19;;;;;;;0.10;0.10;;;19.70;99.90;;;;;;5030768;28;20049;-74
2022/10/04 13:51:03;;;;;;;0.88;0.88;;;19.60;99.90;;;;;;5021175;28;20068;-76
2022/10/04 13:57:10;;;;;;;0.15;0.15;;;19.40;99.90;;;;;;5031579;28;20049;-75
2022/10/04 13:59:49;;;;;;;0.13;0.13;;;19.20;99.90;;;;;;5030766;28;20542;-76
2022/10/04 14:02:24;;;;;;;0.00;0.00;;;19.10;99.90;;;;;;5032186;28;20111;-74
2022/10/04 14:05:19;;;;;;;0.38;0.35;;;19.00;99.90;;;;;;5034312;28;20073;-75
2022/10/04 14:08:16;;;;;;;0.00;0.00;;;19.20;99.90;;;;;;5042650;28;20071;-75
2022/10/04 14:11:09;;;;;;;0.00;0.00;;;19.40;99.90;;;;;;5029779;28;20103;-75